sensor_id;sensor_type;location;lat;lon;timestamp;temperature;humidity
49413;DHT22;35493;50.276;9.372;2023-05-10T00:00:25;16.70;85.10
49413;DHT22;35493;50.276;9.372;2023-05-10T00:02:51;16.70;85.20
49413;DHT22;35493;50.276;9.372;2023-05-10T00:05:18;16.70;85.30
49413;DHT22;35493;50.276;9.372;2023-05-10T00:07:45;16.60;85.40
49413;DHT22;35493;50.276;9.372;2023-05-10T00:10:12;16.60;85.50
49413;DHT22;35493;50.276;9.372;2023-05-10T00:12:39;16.60;85.60
49413;DHT22;35493;50.276;9.372;2023-05-10T00:15:08;16.60;85.60
49413;DHT22;35493;50.276;9.372;2023-05-10T00:17:34;16.60;85.60
49413;DHT22;35493;50.276;9.372;2023-05-10T00:20:01;16.60;85.60
49413;DHT22;35493;50.276;9.372;2023-05-10T00:22:30;16.60;85.70
49413;DHT22;35493;50.276;9.372;2023-05-10T00:24:57;16.60;85.70
49413;DHT22;35493;50.276;9.372;2023-05-10T00:27:23;16.60;85.70
49413;DHT22;35493;50.276;9.372;2023-05-10T00:29:50;16.60;85.60
49413;DHT22;35493;50.276;9.372;2023-05-10T00:32:18;16.60;85.60
49413;DHT22;35493;50.276;9.372;2023-05-10T00:34:46;16.60;85.70
49413;DHT22;35493;50.276;9.372;2023-05-10T00:37:13;16.50;85.80
49413;DHT22;35493;50.276;9.372;2023-05-10T00:39:42;16.60;85.90
49413;DHT22;35493;50.276;9.372;2023-05-10T00:42:08;16.50;85.80
49413;DHT22;35493;50.276;9.372;2023-05-10T00:44:35;16.50;85.90
49413;DHT22;35493;50.276;9.372;2023-05-10T00:47:02;16.60;86.00
49413;DHT22;35493;50.276;9.372;2023-05-10T00:49:30;16.60;85.90
49413;DHT22;35493;50.276;9.372;2023-05-10T00:51:57;16.60;86.00
49413;DHT22;35493;50.276;9.372;2023-05-10T00:54:24;16.50;86.20
49413;DHT22;35493;50.276;9.372;2023-05-10T00:56:51;16.60;86.20
49413;DHT22;35493;50.276;9.372;2023-05-10T00:59:18;16.60;85.80
49413;DHT22;35493;50.276;9.372;2023-05-10T01:01:45;16.60;85.80
49413;DHT22;35493;50.276;9.372;2023-05-10T01:04:12;16.70;85.00
49413;DHT22;35493;50.276;9.372;2023-05-10T01:06:40;16.70;83.80
49413;DHT22;35493;50.276;9.372;2023-05-10T01:09:07;16.70;83.40
49413;DHT22;35493;50.276;9.372;2023-05-10T01:11:34;16.80;82.60
49413;DHT22;35493;50.276;9.372;2023-05-10T01:14:01;16.80;82.30
49413;DHT22;35493;50.276;9.372;2023-05-10T01:16:28;16.70;81.80
49413;DHT22;35493;50.276;9.372;2023-05-10T01:18:56;16.60;82.00
49413;DHT22;35493;50.276;9.372;2023-05-10T01:21:23;16.60;82.00
49413;DHT22;35493;50.276;9.372;2023-05-10T01:29:38;16.50;81.90
49413;DHT22;35493;50.276;9.372;2023-05-10T01:32:15;16.50;81.90
49413;DHT22;35493;50.276;9.372;2023-05-10T01:34:46;16.50;81.80
49413;DHT22;35493;50.276;9.372;2023-05-10T01:37:17;16.30;82.30
49413;DHT22;35493;50.276;9.372;2023-05-10T01:39:47;16.20;82.80
49413;DHT22;35493;50.276;9.372;2023-05-10T01:42:17;16.20;82.90
49413;DHT22;35493;50.276;9.372;2023-05-10T01:44:46;16.20;82.90
49413;DHT22;35493;50.276;9.372;2023-05-10T01:47:17;16.10;83.40
49413;DHT22;35493;50.276;9.372;2023-05-10T01:49:47;16.10;83.70
49413;DHT22;35493;50.276;9.372;2023-05-10T01:52:16;16.00;83.70
49413;DHT22;35493;50.276;9.372;2023-05-10T01:54:48;16.00;83.90
49413;DHT22;35493;50.276;9.372;2023-05-10T01:57:16;16.00;83.80
49413;DHT22;35493;50.276;9.372;2023-05-10T01:59:49;16.00;84.10
49413;DHT22;35493;50.276;9.372;2023-05-10T02:02:20;15.90;84.40
49413;DHT22;35493;50.276;9.372;2023-05-10T02:04:47;15.90;84.40
49413;DHT22;35493;50.276;9.372;2023-05-10T02:07:14;16.00;84.20
49413;DHT22;35493;50.276;9.372;2023-05-10T02:09:41;15.90;84.40
49413;DHT22;35493;50.276;9.372;2023-05-10T02:12:12;15.90;84.60
49413;DHT22;35493;50.276;9.372;2023-05-10T02:14:40;15.90;84.40
49413;DHT22;35493;50.276;9.372;2023-05-10T02:17:07;16.00;84.20
49413;DHT22;35493;50.276;9.372;2023-05-10T02:19:38;15.90;84.20
49413;DHT22;35493;50.276;9.372;2023-05-10T02:22:05;15.90;84.20
49413;DHT22;35493;50.276;9.372;2023-05-10T02:24:32;15.90;84.30
49413;DHT22;35493;50.276;9.372;2023-05-10T02:27:00;15.90;84.10
49413;DHT22;35493;50.276;9.372;2023-05-10T02:29:29;15.80;84.30
49413;DHT22;35493;50.276;9.372;2023-05-10T02:31:56;15.70;84.50
49413;DHT22;35493;50.276;9.372;2023-05-10T02:34:24;15.70;84.60
49413;DHT22;35493;50.276;9.372;2023-05-10T02:36:56;15.80;84.40
49413;DHT22;35493;50.276;9.372;2023-05-10T02:39:23;15.70;84.70
49413;DHT22;35493;50.276;9.372;2023-05-10T02:41:51;15.60;84.70
49413;DHT22;35493;50.276;9.372;2023-05-10T02:44:19;15.70;84.50
49413;DHT22;35493;50.276;9.372;2023-05-10T02:46:46;15.60;84.80
49413;DHT22;35493;50.276;9.372;2023-05-10T02:49:13;15.60;84.90
49413;DHT22;35493;50.276;9.372;2023-05-10T02:51:41;15.50;85.00
49413;DHT22;35493;50.276;9.372;2023-05-10T02:54:10;15.40;85.10
49413;DHT22;35493;50.276;9.372;2023-05-10T02:56:49;15.40;85.30
49413;DHT22;35493;50.276;9.372;2023-05-10T02:59:17;15.40;85.40
49413;DHT22;35493;50.276;9.372;2023-05-10T03:01:43;15.50;85.10
49413;DHT22;35493;50.276;9.372;2023-05-10T03:04:10;15.60;84.60
49413;DHT22;35493;50.276;9.372;2023-05-10T03:06:37;15.40;85.00
49413;DHT22;35493;50.276;9.372;2023-05-10T03:09:04;15.40;85.30
49413;DHT22;35493;50.276;9.372;2023-05-10T03:11:39;15.40;85.40
49413;DHT22;35493;50.276;9.372;2023-05-10T03:14:10;15.40;85.10
49413;DHT22;35493;50.276;9.372;2023-05-10T03:16:41;15.50;84.50
49413;DHT22;35493;50.276;9.372;2023-05-10T03:19:12;15.40;85.00
49413;DHT22;35493;50.276;9.372;2023-05-10T03:21:40;15.40;85.00
49413;DHT22;35493;50.276;9.372;2023-05-10T03:24:08;15.40;85.00
49413;DHT22;35493;50.276;9.372;2023-05-10T03:26:38;15.40;84.90
49413;DHT22;35493;50.276;9.372;2023-05-10T03:29:11;15.40;84.90
49413;DHT22;35493;50.276;9.372;2023-05-10T03:31:38;15.30;85.10
49413;DHT22;35493;50.276;9.372;2023-05-10T03:34:05;15.40;84.90
49413;DHT22;35493;50.276;9.372;2023-05-10T03:36:32;15.40;84.80
49413;DHT22;35493;50.276;9.372;2023-05-10T03:38:59;15.40;84.80
49413;DHT22;35493;50.276;9.372;2023-05-10T03:41:26;15.40;84.50
49413;DHT22;35493;50.276;9.372;2023-05-10T03:43:55;15.40;84.80
49413;DHT22;35493;50.276;9.372;2023-05-10T03:46:22;15.30;84.90
49413;DHT22;35493;50.276;9.372;2023-05-10T03:48:49;15.20;85.10
49413;DHT22;35493;50.276;9.372;2023-05-10T03:51:15;15.30;84.90
49413;DHT22;35493;50.276;9.372;2023-05-10T03:53:42;15.20;85.20
49413;DHT22;35493;50.276;9.372;2023-05-10T03:56:09;15.20;85.00
49413;DHT22;35493;50.276;9.372;2023-05-10T03:58:36;15.30;84.70
49413;DHT22;35493;50.276;9.372;2023-05-10T04:01:04;15.20;84.90
49413;DHT22;35493;50.276;9.372;2023-05-10T04:03:31;15.20;85.10
49413;DHT22;35493;50.276;9.372;2023-05-10T04:05:59;15.20;85.10
49413;DHT22;35493;50.276;9.372;2023-05-10T04:08:26;15.20;85.10
49413;DHT22;35493;50.276;9.372;2023-05-10T04:10:53;15.30;84.90
49413;DHT22;35493;50.276;9.372;2023-05-10T04:13:19;15.30;84.70
49413;DHT22;35493;50.276;9.372;2023-05-10T04:15:46;15.20;84.90
49413;DHT22;35493;50.276;9.372;2023-05-10T04:18:14;15.20;85.00
49413;DHT22;35493;50.276;9.372;2023-05-10T04:20:42;15.30;84.60
49413;DHT22;35493;50.276;9.372;2023-05-10T04:23:09;15.20;84.60
49413;DHT22;35493;50.276;9.372;2023-05-10T04:25:36;15.20;84.90
49413;DHT22;35493;50.276;9.372;2023-05-10T04:28:03;15.10;85.00
49413;DHT22;35493;50.276;9.372;2023-05-10T04:30:30;15.20;84.70
49413;DHT22;35493;50.276;9.372;2023-05-10T04:32:56;15.20;85.10
49413;DHT22;35493;50.276;9.372;2023-05-10T04:35:24;15.10;85.10
49413;DHT22;35493;50.276;9.372;2023-05-10T04:37:51;15.20;84.90
49413;DHT22;35493;50.276;9.372;2023-05-10T04:40:18;15.20;84.80
49413;DHT22;35493;50.276;9.372;2023-05-10T04:42:45;15.10;85.00
49413;DHT22;35493;50.276;9.372;2023-05-10T04:45:12;15.10;85.30
49413;DHT22;35493;50.276;9.372;2023-05-10T04:47:39;15.10;85.60
49413;DHT22;35493;50.276;9.372;2023-05-10T04:50:07;15.10;85.50
49413;DHT22;35493;50.276;9.372;2023-05-10T04:52:35;15.10;85.60
49413;DHT22;35493;50.276;9.372;2023-05-10T04:55:02;15.20;85.20
49413;DHT22;35493;50.276;9.372;2023-05-10T04:57:28;15.20;85.20
49413;DHT22;35493;50.276;9.372;2023-05-10T04:59:55;15.20;85.20
49413;DHT22;35493;50.276;9.372;2023-05-10T05:02:22;15.10;85.40
49413;DHT22;35493;50.276;9.372;2023-05-10T05:04:49;15.20;85.40
49413;DHT22;35493;50.276;9.372;2023-05-10T05:07:16;15.20;85.20
49413;DHT22;35493;50.276;9.372;2023-05-10T05:09:44;15.30;84.80
49413;DHT22;35493;50.276;9.372;2023-05-10T05:12:11;15.30;84.70
49413;DHT22;35493;50.276;9.372;2023-05-10T05:14:39;15.30;85.00
49413;DHT22;35493;50.276;9.372;2023-05-10T05:17:06;15.30;84.90
49413;DHT22;35493;50.276;9.372;2023-05-10T05:19:33;15.30;85.20
49413;DHT22;35493;50.276;9.372;2023-05-10T05:22:00;15.30;85.20
49413;DHT22;35493;50.276;9.372;2023-05-10T05:24:26;15.30;85.30
49413;DHT22;35493;50.276;9.372;2023-05-10T05:26:54;15.20;85.60
49413;DHT22;35493;50.276;9.372;2023-05-10T05:29:21;15.30;85.20
49413;DHT22;35493;50.276;9.372;2023-05-10T05:31:48;15.30;85.20
49413;DHT22;35493;50.276;9.372;2023-05-10T05:34:15;15.30;85.50
49413;DHT22;35493;50.276;9.372;2023-05-10T05:36:42;15.30;85.00
49413;DHT22;35493;50.276;9.372;2023-05-10T05:39:08;15.50;84.80
49413;DHT22;35493;50.276;9.372;2023-05-10T05:41:35;15.50;85.00
49413;DHT22;35493;50.276;9.372;2023-05-10T05:44:03;15.50;84.30
49413;DHT22;35493;50.276;9.372;2023-05-10T05:46:30;15.60;84.70
49413;DHT22;35493;50.276;9.372;2023-05-10T05:48:57;15.50;84.90
49413;DHT22;35493;50.276;9.372;2023-05-10T05:51:23;15.50;85.10
49413;DHT22;35493;50.276;9.372;2023-05-10T05:53:50;15.60;84.80
49413;DHT22;35493;50.276;9.372;2023-05-10T05:56:17;15.60;84.80
49413;DHT22;35493;50.276;9.372;2023-05-10T05:58:49;15.60;84.90
49413;DHT22;35493;50.276;9.372;2023-05-10T06:01:17;15.60;85.10
49413;DHT22;35493;50.276;9.372;2023-05-10T06:03:44;15.60;84.80
49413;DHT22;35493;50.276;9.372;2023-05-10T06:06:20;15.60;84.60
49413;DHT22;35493;50.276;9.372;2023-05-10T06:08:47;15.60;84.80
49413;DHT22;35493;50.276;9.372;2023-05-10T06:11:14;15.70;84.50
49413;DHT22;35493;50.276;9.372;2023-05-10T06:13:40;15.70;84.00
49413;DHT22;35493;50.276;9.372;2023-05-10T06:16:08;15.70;84.30
49413;DHT22;35493;50.276;9.372;2023-05-10T06:18:36;15.60;84.90
49413;DHT22;35493;50.276;9.372;2023-05-10T06:21:02;15.60;85.10
49413;DHT22;35493;50.276;9.372;2023-05-10T06:23:29;15.60;85.10
49413;DHT22;35493;50.276;9.372;2023-05-10T06:25:56;15.60;85.30
49413;DHT22;35493;50.276;9.372;2023-05-10T06:28:23;15.50;85.60
49413;DHT22;35493;50.276;9.372;2023-05-10T06:30:49;15.50;85.70
49413;DHT22;35493;50.276;9.372;2023-05-10T06:33:16;15.40;85.90
49413;DHT22;35493;50.276;9.372;2023-05-10T06:35:44;15.30;86.10
49413;DHT22;35493;50.276;9.372;2023-05-10T06:38:11;15.30;86.10
49413;DHT22;35493;50.276;9.372;2023-05-10T06:40:40;15.40;85.90
49413;DHT22;35493;50.276;9.372;2023-05-10T06:43:07;15.30;86.20
49413;DHT22;35493;50.276;9.372;2023-05-10T06:45:34;15.30;86.20
49413;DHT22;35493;50.276;9.372;2023-05-10T06:48:00;15.20;86.50
49413;DHT22;35493;50.276;9.372;2023-05-10T06:50:27;15.20;86.50
49413;DHT22;35493;50.276;9.372;2023-05-10T06:52:55;15.20;86.20
49413;DHT22;35493;50.276;9.372;2023-05-10T06:55:22;15.20;86.20
49413;DHT22;35493;50.276;9.372;2023-05-10T06:57:49;15.20;86.30
49413;DHT22;35493;50.276;9.372;2023-05-10T07:00:16;15.20;86.00
49413;DHT22;35493;50.276;9.372;2023-05-10T07:02:43;15.20;86.20
49413;DHT22;35493;50.276;9.372;2023-05-10T07:05:10;15.30;86.10
49413;DHT22;35493;50.276;9.372;2023-05-10T07:07:37;15.30;86.10
49413;DHT22;35493;50.276;9.372;2023-05-10T07:10:06;15.40;86.00
49413;DHT22;35493;50.276;9.372;2023-05-10T07:12:33;15.40;86.00
49413;DHT22;35493;50.276;9.372;2023-05-10T07:15:00;15.40;86.00
49413;DHT22;35493;50.276;9.372;2023-05-10T07:17:27;15.40;86.10
49413;DHT22;35493;50.276;9.372;2023-05-10T07:19:53;15.40;85.80
49413;DHT22;35493;50.276;9.372;2023-05-10T07:22:20;15.50;85.90
49413;DHT22;35493;50.276;9.372;2023-05-10T07:24:47;15.50;86.00
49413;DHT22;35493;50.276;9.372;2023-05-10T07:27:15;15.60;85.70
49413;DHT22;35493;50.276;9.372;2023-05-10T07:29:42;15.50;85.60
49413;DHT22;35493;50.276;9.372;2023-05-10T07:32:09;15.60;85.60
49413;DHT22;35493;50.276;9.372;2023-05-10T07:34:35;15.50;85.70
49413;DHT22;35493;50.276;9.372;2023-05-10T07:37:02;15.50;85.70
49413;DHT22;35493;50.276;9.372;2023-05-10T07:39:29;15.60;85.60
49413;DHT22;35493;50.276;9.372;2023-05-10T07:41:56;15.60;85.50
49413;DHT22;35493;50.276;9.372;2023-05-10T07:44:24;15.60;85.70
49413;DHT22;35493;50.276;9.372;2023-05-10T07:46:51;15.60;85.30
49413;DHT22;35493;50.276;9.372;2023-05-10T07:49:18;15.60;85.50
49413;DHT22;35493;50.276;9.372;2023-05-10T07:51:45;15.60;85.50
49413;DHT22;35493;50.276;9.372;2023-05-10T07:54:12;15.50;85.50
49413;DHT22;35493;50.276;9.372;2023-05-10T07:56:39;15.60;85.50
49413;DHT22;35493;50.276;9.372;2023-05-10T07:59:14;15.60;85.40
49413;DHT22;35493;50.276;9.372;2023-05-10T08:01:42;15.60;85.20
49413;DHT22;35493;50.276;9.372;2023-05-10T08:04:09;15.70;85.00
49413;DHT22;35493;50.276;9.372;2023-05-10T08:06:36;15.70;84.90
49413;DHT22;35493;50.276;9.372;2023-05-10T08:09:03;15.80;85.00
49413;DHT22;35493;50.276;9.372;2023-05-10T08:11:30;15.70;85.30
49413;DHT22;35493;50.276;9.372;2023-05-10T08:13:57;15.70;85.10
49413;DHT22;35493;50.276;9.372;2023-05-10T08:16:23;15.80;84.90
49413;DHT22;35493;50.276;9.372;2023-05-10T08:18:51;15.80;84.90
49413;DHT22;35493;50.276;9.372;2023-05-10T08:21:20;15.80;84.80
49413;DHT22;35493;50.276;9.372;2023-05-10T08:23:47;15.80;84.80
49413;DHT22;35493;50.276;9.372;2023-05-10T08:26:14;15.80;84.80
49413;DHT22;35493;50.276;9.372;2023-05-10T08:28:41;15.70;84.80
49413;DHT22;35493;50.276;9.372;2023-05-10T08:31:07;15.70;85.30
49413;DHT22;35493;50.276;9.372;2023-05-10T08:33:34;15.70;85.20
49413;DHT22;35493;50.276;9.372;2023-05-10T08:36:02;15.70;85.30
49413;DHT22;35493;50.276;9.372;2023-05-10T08:38:29;15.80;85.30
49413;DHT22;35493;50.276;9.372;2023-05-10T08:40:56;15.90;84.80
49413;DHT22;35493;50.276;9.372;2023-05-10T08:43:25;16.00;85.30
49413;DHT22;35493;50.276;9.372;2023-05-10T08:45:53;16.00;84.70
49413;DHT22;35493;50.276;9.372;2023-05-10T08:48:20;16.00;85.00
49413;DHT22;35493;50.276;9.372;2023-05-10T08:50:48;15.90;85.30
49413;DHT22;35493;50.276;9.372;2023-05-10T08:53:17;16.00;84.90
49413;DHT22;35493;50.276;9.372;2023-05-10T08:55:43;16.00;84.90
49413;DHT22;35493;50.276;9.372;2023-05-10T08:58:10;16.00;85.00
49413;DHT22;35493;50.276;9.372;2023-05-10T09:00:37;16.10;84.70
49413;DHT22;35493;50.276;9.372;2023-05-10T09:03:04;16.00;84.50
49413;DHT22;35493;50.276;9.372;2023-05-10T09:05:31;16.00;84.70
49413;DHT22;35493;50.276;9.372;2023-05-10T09:07:58;15.90;84.90
49413;DHT22;35493;50.276;9.372;2023-05-10T09:10:27;15.90;84.60
49413;DHT22;35493;50.276;9.372;2023-05-10T09:12:54;15.90;84.80
49413;DHT22;35493;50.276;9.372;2023-05-10T09:15:22;15.90;84.90
49413;DHT22;35493;50.276;9.372;2023-05-10T09:17:49;16.10;84.60
49413;DHT22;35493;50.276;9.372;2023-05-10T09:20:16;16.10;84.80
49413;DHT22;35493;50.276;9.372;2023-05-10T09:22:43;16.10;84.70
49413;DHT22;35493;50.276;9.372;2023-05-10T09:25:11;16.30;84.70
49413;DHT22;35493;50.276;9.372;2023-05-10T09:27:39;16.40;84.70
49413;DHT22;35493;50.276;9.372;2023-05-10T09:30:07;16.50;84.70
49413;DHT22;35493;50.276;9.372;2023-05-10T09:32:37;16.60;84.90
49413;DHT22;35493;50.276;9.372;2023-05-10T09:35:08;16.60;84.70
49413;DHT22;35493;50.276;9.372;2023-05-10T09:37:35;16.70;84.40
49413;DHT22;35493;50.276;9.372;2023-05-10T09:40:04;16.70;84.60
49413;DHT22;35493;50.276;9.372;2023-05-10T09:42:30;16.70;84.70
49413;DHT22;35493;50.276;9.372;2023-05-10T09:45:01;16.70;84.10
49413;DHT22;35493;50.276;9.372;2023-05-10T09:47:28;16.70;83.90
49413;DHT22;35493;50.276;9.372;2023-05-10T09:49:54;16.80;83.20
49413;DHT22;35493;50.276;9.372;2023-05-10T09:52:23;16.80;83.60
49413;DHT22;35493;50.276;9.372;2023-05-10T09:54:52;16.60;83.50
49413;DHT22;35493;50.276;9.372;2023-05-10T09:57:20;16.60;83.30
49413;DHT22;35493;50.276;9.372;2023-05-10T09:59:47;16.60;83.30
49413;DHT22;35493;50.276;9.372;2023-05-10T10:02:16;16.60;83.30
49413;DHT22;35493;50.276;9.372;2023-05-10T10:04:43;16.60;83.40
49413;DHT22;35493;50.276;9.372;2023-05-10T10:07:09;16.80;82.90
49413;DHT22;35493;50.276;9.372;2023-05-10T10:09:36;16.80;82.60
49413;DHT22;35493;50.276;9.372;2023-05-10T10:12:03;16.80;82.30
49413;DHT22;35493;50.276;9.372;2023-05-10T10:14:30;16.80;82.30
49413;DHT22;35493;50.276;9.372;2023-05-10T10:16:57;17.00;82.10
49413;DHT22;35493;50.276;9.372;2023-05-10T10:19:27;17.10;81.80
49413;DHT22;35493;50.276;9.372;2023-05-10T10:21:54;17.20;81.50
49413;DHT22;35493;50.276;9.372;2023-05-10T10:24:21;17.30;80.90
49413;DHT22;35493;50.276;9.372;2023-05-10T10:26:48;17.40;80.70
49413;DHT22;35493;50.276;9.372;2023-05-10T10:29:20;17.60;80.50
49413;DHT22;35493;50.276;9.372;2023-05-10T10:31:49;17.60;80.60
49413;DHT22;35493;50.276;9.372;2023-05-10T10:34:21;17.70;80.40
49413;DHT22;35493;50.276;9.372;2023-05-10T10:36:52;17.70;80.10
49413;DHT22;35493;50.276;9.372;2023-05-10T10:39:20;17.80;80.00
49413;DHT22;35493;50.276;9.372;2023-05-10T10:41:50;18.00;79.20
49413;DHT22;35493;50.276;9.372;2023-05-10T10:44:24;18.10;78.50
49413;DHT22;35493;50.276;9.372;2023-05-10T10:49:48;18.10;78.50
49413;DHT22;35493;50.276;9.372;2023-05-10T10:52:24;17.80;77.90
49413;DHT22;35493;50.276;9.372;2023-05-10T10:54:57;17.80;78.30
49413;DHT22;35493;50.276;9.372;2023-05-10T10:57:24;17.60;78.10
49413;DHT22;35493;50.276;9.372;2023-05-10T10:59:53;17.50;78.60
49413;DHT22;35493;50.276;9.372;2023-05-10T11:02:46;17.40;79.00
49413;DHT22;35493;50.276;9.372;2023-05-10T11:08:18;17.30;80.10
49413;DHT22;35493;50.276;9.372;2023-05-10T11:13:34;17.30;81.60
49413;DHT22;35493;50.276;9.372;2023-05-10T11:16:14;17.20;81.90
49413;DHT22;35493;50.276;9.372;2023-05-10T11:18:53;17.20;82.00
49413;DHT22;35493;50.276;9.372;2023-05-10T11:21:20;17.20;82.30
49413;DHT22;35493;50.276;9.372;2023-05-10T11:23:47;17.20;81.50
49413;DHT22;35493;50.276;9.372;2023-05-10T11:26:14;17.10;81.10
49413;DHT22;35493;50.276;9.372;2023-05-10T11:28:41;17.10;81.20
49413;DHT22;35493;50.276;9.372;2023-05-10T11:31:08;17.00;80.80
49413;DHT22;35493;50.276;9.372;2023-05-10T11:33:42;16.90;80.90
49413;DHT22;35493;50.276;9.372;2023-05-10T11:36:11;16.80;81.10
49413;DHT22;35493;50.276;9.372;2023-05-10T11:38:38;16.70;81.10
49413;DHT22;35493;50.276;9.372;2023-05-10T11:41:05;16.70;81.60
49413;DHT22;35493;50.276;9.372;2023-05-10T11:43:31;16.60;81.80
49413;DHT22;35493;50.276;9.372;2023-05-10T11:45:58;16.70;81.30
49413;DHT22;35493;50.276;9.372;2023-05-10T11:48:25;16.60;81.60
49413;DHT22;35493;50.276;9.372;2023-05-10T11:50:52;16.60;82.00
49413;DHT22;35493;50.276;9.372;2023-05-10T11:53:24;16.60;81.90
49413;DHT22;35493;50.276;9.372;2023-05-10T11:55:52;16.60;81.90
49413;DHT22;35493;50.276;9.372;2023-05-10T11:58:18;16.60;82.40
49413;DHT22;35493;50.276;9.372;2023-05-10T12:00:46;16.60;82.10
49413;DHT22;35493;50.276;9.372;2023-05-10T12:03:13;16.60;82.00
49413;DHT22;35493;50.276;9.372;2023-05-10T12:05:40;16.70;81.90
49413;DHT22;35493;50.276;9.372;2023-05-10T12:08:10;16.60;82.60
49413;DHT22;35493;50.276;9.372;2023-05-10T12:10:39;16.50;83.10
49413;DHT22;35493;50.276;9.372;2023-05-10T12:13:06;16.60;83.30
49413;DHT22;35493;50.276;9.372;2023-05-10T12:15:36;16.60;83.60
49413;DHT22;35493;50.276;9.372;2023-05-10T12:18:03;16.60;83.70
49413;DHT22;35493;50.276;9.372;2023-05-10T12:20:30;16.70;83.10
49413;DHT22;35493;50.276;9.372;2023-05-10T12:22:58;16.70;83.10
49413;DHT22;35493;50.276;9.372;2023-05-10T12:25:29;16.70;83.70
49413;DHT22;35493;50.276;9.372;2023-05-10T12:27:58;16.70;83.80
49413;DHT22;35493;50.276;9.372;2023-05-10T12:30:26;16.80;82.60
49413;DHT22;35493;50.276;9.372;2023-05-10T12:32:53;16.80;82.60
49413;DHT22;35493;50.276;9.372;2023-05-10T12:35:20;16.60;82.40
49413;DHT22;35493;50.276;9.372;2023-05-10T12:37:50;16.70;82.10
49413;DHT22;35493;50.276;9.372;2023-05-10T12:40:17;16.60;82.30
49413;DHT22;35493;50.276;9.372;2023-05-10T12:42:43;16.60;82.90
49413;DHT22;35493;50.276;9.372;2023-05-10T12:45:12;16.70;82.80
49413;DHT22;35493;50.276;9.372;2023-05-10T12:47:39;16.60;83.40
49413;DHT22;35493;50.276;9.372;2023-05-10T12:50:06;16.70;83.50
49413;DHT22;35493;50.276;9.372;2023-05-10T12:52:33;16.70;83.80
49413;DHT22;35493;50.276;9.372;2023-05-10T12:55:00;16.70;84.00
49413;DHT22;35493;50.276;9.372;2023-05-10T12:57:26;16.70;83.00
49413;DHT22;35493;50.276;9.372;2023-05-10T12:59:53;16.70;82.80
49413;DHT22;35493;50.276;9.372;2023-05-10T13:02:22;16.70;83.00
49413;DHT22;35493;50.276;9.372;2023-05-10T13:04:49;16.70;83.30
49413;DHT22;35493;50.276;9.372;2023-05-10T13:07:16;16.60;83.50
49413;DHT22;35493;50.276;9.372;2023-05-10T13:09:42;16.70;83.30
49413;DHT22;35493;50.276;9.372;2023-05-10T13:12:09;16.70;83.40
49413;DHT22;35493;50.276;9.372;2023-05-10T13:14:36;16.60;83.30
49413;DHT22;35493;50.276;9.372;2023-05-10T13:17:03;16.70;83.10
49413;DHT22;35493;50.276;9.372;2023-05-10T13:19:31;16.70;82.90
49413;DHT22;35493;50.276;9.372;2023-05-10T13:21:58;16.70;82.60
49413;DHT22;35493;50.276;9.372;2023-05-10T13:24:25;16.70;82.40
49413;DHT22;35493;50.276;9.372;2023-05-10T13:26:51;16.70;81.80
49413;DHT22;35493;50.276;9.372;2023-05-10T13:29:24;16.70;81.70
49413;DHT22;35493;50.276;9.372;2023-05-10T13:31:51;16.70;81.60
49413;DHT22;35493;50.276;9.372;2023-05-10T13:34:17;16.60;81.30
49413;DHT22;35493;50.276;9.372;2023-05-10T13:36:47;16.60;81.30
49413;DHT22;35493;50.276;9.372;2023-05-10T13:39:14;16.50;81.70
49413;DHT22;35493;50.276;9.372;2023-05-10T13:41:41;16.40;82.10
49413;DHT22;35493;50.276;9.372;2023-05-10T13:44:08;16.40;82.70
49413;DHT22;35493;50.276;9.372;2023-05-10T13:46:34;16.40;83.30
49413;DHT22;35493;50.276;9.372;2023-05-10T13:49:01;16.50;83.10
49413;DHT22;35493;50.276;9.372;2023-05-10T13:51:28;16.40;83.10
49413;DHT22;35493;50.276;9.372;2023-05-10T13:53:58;16.50;83.50
49413;DHT22;35493;50.276;9.372;2023-05-10T13:56:25;16.40;83.80
49413;DHT22;35493;50.276;9.372;2023-05-10T13:58:51;16.50;83.70
49413;DHT22;35493;50.276;9.372;2023-05-10T14:01:18;16.50;83.80
49413;DHT22;35493;50.276;9.372;2023-05-10T14:03:45;16.50;84.10
49413;DHT22;35493;50.276;9.372;2023-05-10T14:06:12;16.60;84.20
49413;DHT22;35493;50.276;9.372;2023-05-10T14:08:39;16.60;84.20
49413;DHT22;35493;50.276;9.372;2023-05-10T14:11:07;16.60;84.40
49413;DHT22;35493;50.276;9.372;2023-05-10T14:13:33;16.60;84.50
49413;DHT22;35493;50.276;9.372;2023-05-10T14:16:00;16.70;84.40
49413;DHT22;35493;50.276;9.372;2023-05-10T14:18:27;16.70;83.90
49413;DHT22;35493;50.276;9.372;2023-05-10T14:20:54;16.70;84.20
49413;DHT22;35493;50.276;9.372;2023-05-10T14:23:21;16.80;84.90
49413;DHT22;35493;50.276;9.372;2023-05-10T14:25:49;16.90;84.70
49413;DHT22;35493;50.276;9.372;2023-05-10T14:28:17;17.00;83.70
49413;DHT22;35493;50.276;9.372;2023-05-10T14:30:45;17.10;83.30
49413;DHT22;35493;50.276;9.372;2023-05-10T14:33:12;17.20;83.50
49413;DHT22;35493;50.276;9.372;2023-05-10T14:35:39;17.20;83.60
49413;DHT22;35493;50.276;9.372;2023-05-10T14:38:06;17.30;83.70
49413;DHT22;35493;50.276;9.372;2023-05-10T14:40:33;17.40;83.70
49413;DHT22;35493;50.276;9.372;2023-05-10T14:43:01;17.40;83.40
49413;DHT22;35493;50.276;9.372;2023-05-10T14:45:29;17.50;83.00
49413;DHT22;35493;50.276;9.372;2023-05-10T14:47:56;17.50;82.60
49413;DHT22;35493;50.276;9.372;2023-05-10T14:50:23;17.50;82.60
49413;DHT22;35493;50.276;9.372;2023-05-10T14:52:50;17.60;82.20
49413;DHT22;35493;50.276;9.372;2023-05-10T14:55:16;17.60;82.60
49413;DHT22;35493;50.276;9.372;2023-05-10T14:57:43;17.60;82.70
49413;DHT22;35493;50.276;9.372;2023-05-10T15:00:13;17.60;82.70
49413;DHT22;35493;50.276;9.372;2023-05-10T15:02:42;17.60;82.80
49413;DHT22;35493;50.276;9.372;2023-05-10T15:05:09;17.60;83.00
49413;DHT22;35493;50.276;9.372;2023-05-10T15:07:35;17.60;83.20
49413;DHT22;35493;50.276;9.372;2023-05-10T15:10:02;17.70;83.40
49413;DHT22;35493;50.276;9.372;2023-05-10T15:12:29;17.60;82.90
49413;DHT22;35493;50.276;9.372;2023-05-10T15:14:56;17.60;82.10
49413;DHT22;35493;50.276;9.372;2023-05-10T15:17:22;17.60;82.70
49413;DHT22;35493;50.276;9.372;2023-05-10T15:19:50;17.60;82.60
49413;DHT22;35493;50.276;9.372;2023-05-10T15:22:17;17.60;82.50
49413;DHT22;35493;50.276;9.372;2023-05-10T15:24:44;17.60;82.80
49413;DHT22;35493;50.276;9.372;2023-05-10T15:27:11;17.50;82.60
49413;DHT22;35493;50.276;9.372;2023-05-10T15:29:37;17.50;83.20
49413;DHT22;35493;50.276;9.372;2023-05-10T15:32:04;17.40;82.20
49413;DHT22;35493;50.276;9.372;2023-05-10T15:34:31;17.40;82.40
49413;DHT22;35493;50.276;9.372;2023-05-10T15:36:59;17.40;82.40
49413;DHT22;35493;50.276;9.372;2023-05-10T15:39:26;17.40;81.90
49413;DHT22;35493;50.276;9.372;2023-05-10T15:41:53;17.30;82.30
49413;DHT22;35493;50.276;9.372;2023-05-10T15:44:19;17.30;81.90
49413;DHT22;35493;50.276;9.372;2023-05-10T15:46:47;17.20;82.30